sensor_id;sensor_type;location;lat;lon;timestamp;P1;durP1;ratioP1;P2;durP2;ratioP2
4500;SDS011;2263;54.654;9.410;2022-09-17T00:01:19;12.03;;;3.70;;
4500;SDS011;2263;54.654;9.410;2022-09-17T00:03:52;13.23;;;3.10;;
4500;SDS011;2263;54.654;9.410;2022-09-17T00:06:22;11.97;;;2.90;;
4500;SDS011;2263;54.654;9.410;2022-09-17T00:08:51;10.57;;;3.00;;
4500;SDS011;2263;54.654;9.410;2022-09-17T00:11:24;18.67;;;3.83;;
4500;SDS011;2263;54.654;9.410;2022-09-17T00:13:54;21.60;;;3.23;;
4500;SDS011;2263;54.654;9.410;2022-09-17T00:16:29;17.83;;;3.47;;
4500;SDS011;2263;54.654;9.410;2022-09-17T00:18:58;19.73;;;4.20;;
4500;SDS011;2263;54.654;9.410;2022-09-17T00:21:26;13.23;;;3.50;;
4500;SDS011;2263;54.654;9.410;2022-09-17T00:23:55;15.90;;;3.60;;
4500;SDS011;2263;54.654;9.410;2022-09-17T00:26:24;20.67;;;3.73;;
4500;SDS011;2263;54.654;9.410;2022-09-17T00:28:52;14.87;;;3.67;;
4500;SDS011;2263;54.654;9.410;2022-09-17T00:31:20;10.20;;;2.70;;
4500;SDS011;2263;54.654;9.410;2022-09-17T00:33:49;11.60;;;3.07;;
4500;SDS011;2263;54.654;9.410;2022-09-17T00:36:16;22.23;;;6.10;;
4500;SDS011;2263;54.654;9.410;2022-09-17T00:38:49;12.97;;;3.90;;
4500;SDS011;2263;54.654;9.410;2022-09-17T00:41:17;15.30;;;3.67;;
4500;SDS011;2263;54.654;9.410;2022-09-17T00:43:47;12.70;;;2.63;;
4500;SDS011;2263;54.654;9.410;2022-09-17T00:46:24;15.47;;;3.93;;
4500;SDS011;2263;54.654;9.410;2022-09-17T00:48:59;14.43;;;3.73;;
4500;SDS011;2263;54.654;9.410;2022-09-17T00:51:52;17.87;;;3.63;;
4500;SDS011;2263;54.654;9.410;2022-09-17T00:54:26;14.03;;;2.90;;
4500;SDS011;2263;54.654;9.410;2022-09-17T00:56:53;12.50;;;5.37;;
4500;SDS011;2263;54.654;9.410;2022-09-17T00:59:22;11.40;;;2.93;;
4500;SDS011;2263;54.654;9.410;2022-09-17T01:01:50;19.53;;;2.83;;
4500;SDS011;2263;54.654;9.410;2022-09-17T01:04:22;13.50;;;3.10;;
4500;SDS011;2263;54.654;9.410;2022-09-17T01:14:59;13.47;;;3.13;;
4500;SDS011;2263;54.654;9.410;2022-09-17T01:31:54;16.83;;;3.10;;
4500;SDS011;2263;54.654;9.410;2022-09-17T01:37:30;21.33;;;3.73;;
4500;SDS011;2263;54.654;9.410;2022-09-17T01:42:48;13.30;;;2.80;;
4500;SDS011;2263;54.654;9.410;2022-09-17T01:48:26;8.13;;;2.47;;
4500;SDS011;2263;54.654;9.410;2022-09-17T01:51:06;8.40;;;2.80;;
4500;SDS011;2263;54.654;9.410;2022-09-17T01:53:37;15.83;;;3.17;;
4500;SDS011;2263;54.654;9.410;2022-09-17T01:56:12;8.90;;;2.43;;
4500;SDS011;2263;54.654;9.410;2022-09-17T01:58:47;9.87;;;2.27;;
4500;SDS011;2263;54.654;9.410;2022-09-17T02:01:23;9.23;;;3.03;;
4500;SDS011;2263;54.654;9.410;2022-09-17T02:06:33;15.13;;;3.50;;
4500;SDS011;2263;54.654;9.410;2022-09-17T02:09:09;10.73;;;2.57;;
4500;SDS011;2263;54.654;9.410;2022-09-17T02:11:59;9.90;;;2.90;;
4500;SDS011;2263;54.654;9.410;2022-09-17T02:14:32;12.43;;;2.90;;
4500;SDS011;2263;54.654;9.410;2022-09-17T02:17:23;7.33;;;2.97;;
4500;SDS011;2263;54.654;9.410;2022-09-17T02:19:55;20.67;;;2.63;;
4500;SDS011;2263;54.654;9.410;2022-09-17T02:25:07;16.97;;;3.20;;
4500;SDS011;2263;54.654;9.410;2022-09-17T02:28:01;16.13;;;3.33;;
4500;SDS011;2263;54.654;9.410;2022-09-17T02:30:29;8.43;;;2.53;;
4500;SDS011;2263;54.654;9.410;2022-09-17T02:32:58;18.07;;;3.20;;
4500;SDS011;2263;54.654;9.410;2022-09-17T02:35:27;7.97;;;3.30;;
4500;SDS011;2263;54.654;9.410;2022-09-17T02:38:03;5.90;;;2.30;;
4500;SDS011;2263;54.654;9.410;2022-09-17T02:40:32;11.57;;;3.87;;
4500;SDS011;2263;54.654;9.410;2022-09-17T02:59:30;7.57;;;2.30;;
4500;SDS011;2263;54.654;9.410;2022-09-17T03:05:09;9.87;;;2.10;;
4500;SDS011;2263;54.654;9.410;2022-09-17T03:07:37;14.03;;;3.07;;
4500;SDS011;2263;54.654;9.410;2022-09-17T03:10:04;7.27;;;2.60;;
4500;SDS011;2263;54.654;9.410;2022-09-17T03:12:32;21.07;;;2.93;;
4500;SDS011;2263;54.654;9.410;2022-09-17T03:15:00;9.73;;;3.03;;
4500;SDS011;2263;54.654;9.410;2022-09-17T03:17:27;11.90;;;2.10;;
4500;SDS011;2263;54.654;9.410;2022-09-17T03:19:55;18.33;;;3.10;;
4500;SDS011;2263;54.654;9.410;2022-09-17T03:22:22;14.53;;;3.60;;
4500;SDS011;2263;54.654;9.410;2022-09-17T03:24:49;12.33;;;2.67;;
4500;SDS011;2263;54.654;9.410;2022-09-17T03:27:16;8.40;;;2.90;;
4500;SDS011;2263;54.654;9.410;2022-09-17T03:29:44;8.73;;;3.10;;
4500;SDS011;2263;54.654;9.410;2022-09-17T03:32:11;11.73;;;2.60;;
4500;SDS011;2263;54.654;9.410;2022-09-17T03:34:38;8.93;;;1.83;;
4500;SDS011;2263;54.654;9.410;2022-09-17T03:37:05;11.93;;;2.83;;
4500;SDS011;2263;54.654;9.410;2022-09-17T03:39:32;12.70;;;2.63;;
4500;SDS011;2263;54.654;9.410;2022-09-17T03:41:59;6.73;;;2.37;;
4500;SDS011;2263;54.654;9.410;2022-09-17T03:44:26;16.23;;;2.80;;
4500;SDS011;2263;54.654;9.410;2022-09-17T03:46:53;12.03;;;3.20;;
4500;SDS011;2263;54.654;9.410;2022-09-17T03:49:21;8.17;;;2.50;;
4500;SDS011;2263;54.654;9.410;2022-09-17T03:51:49;12.83;;;2.17;;
4500;SDS011;2263;54.654;9.410;2022-09-17T03:54:16;22.73;;;9.33;;
4500;SDS011;2263;54.654;9.410;2022-09-17T03:56:43;55.97;;;27.10;;
4500;SDS011;2263;54.654;9.410;2022-09-17T03:59:11;64.40;;;39.80;;
4500;SDS011;2263;54.654;9.410;2022-09-17T04:01:38;78.13;;;44.83;;
4500;SDS011;2263;54.654;9.410;2022-09-17T04:04:05;68.27;;;40.57;;
4500;SDS011;2263;54.654;9.410;2022-09-17T04:06:33;67.40;;;37.80;;
4500;SDS011;2263;54.654;9.410;2022-09-17T04:09:00;59.43;;;34.57;;
4500;SDS011;2263;54.654;9.410;2022-09-17T04:11:30;45.47;;;30.63;;
4500;SDS011;2263;54.654;9.410;2022-09-17T04:13:57;50.07;;;31.57;;
4500;SDS011;2263;54.654;9.410;2022-09-17T04:16:24;42.50;;;27.90;;
4500;SDS011;2263;54.654;9.410;2022-09-17T04:18:51;41.33;;;26.00;;
4500;SDS011;2263;54.654;9.410;2022-09-17T04:21:19;38.83;;;21.47;;
4500;SDS011;2263;54.654;9.410;2022-09-17T04:23:46;34.87;;;20.87;;
4500;SDS011;2263;54.654;9.410;2022-09-17T04:26:13;28.07;;;17.47;;
4500;SDS011;2263;54.654;9.410;2022-09-17T04:28:40;26.03;;;16.57;;
4500;SDS011;2263;54.654;9.410;2022-09-17T04:31:07;27.93;;;15.73;;
4500;SDS011;2263;54.654;9.410;2022-09-17T04:33:34;27.53;;;17.90;;
4500;SDS011;2263;54.654;9.410;2022-09-17T04:36:03;29.30;;;15.10;;
4500;SDS011;2263;54.654;9.410;2022-09-17T04:38:30;25.70;;;13.50;;
4500;SDS011;2263;54.654;9.410;2022-09-17T04:40:59;27.63;;;14.50;;
4500;SDS011;2263;54.654;9.410;2022-09-17T04:43:26;18.70;;;11.53;;
4500;SDS011;2263;54.654;9.410;2022-09-17T04:45:53;21.77;;;14.10;;
4500;SDS011;2263;54.654;9.410;2022-09-17T04:48:20;19.30;;;11.47;;
4500;SDS011;2263;54.654;9.410;2022-09-17T04:50:47;17.70;;;10.23;;
4500;SDS011;2263;54.654;9.410;2022-09-17T04:53:15;12.87;;;8.80;;
4500;SDS011;2263;54.654;9.410;2022-09-17T04:55:42;16.80;;;7.73;;
4500;SDS011;2263;54.654;9.410;2022-09-17T04:58:09;20.73;;;9.20;;
4500;SDS011;2263;54.654;9.410;2022-09-17T05:00:37;11.60;;;7.80;;
4500;SDS011;2263;54.654;9.410;2022-09-17T05:03:05;9.03;;;6.87;;
4500;SDS011;2263;54.654;9.410;2022-09-17T05:05:32;14.00;;;7.83;;
4500;SDS011;2263;54.654;9.410;2022-09-17T05:07:59;16.70;;;6.33;;
4500;SDS011;2263;54.654;9.410;2022-09-17T05:10:26;16.50;;;6.13;;
4500;SDS011;2263;54.654;9.410;2022-09-17T05:12:54;11.87;;;5.53;;
4500;SDS011;2263;54.654;9.410;2022-09-17T05:15:22;12.50;;;5.67;;
4500;SDS011;2263;54.654;9.410;2022-09-17T05:17:50;8.17;;;5.07;;
4500;SDS011;2263;54.654;9.410;2022-09-17T05:20:18;11.67;;;4.93;;
4500;SDS011;2263;54.654;9.410;2022-09-17T05:22:46;7.70;;;4.80;;
4500;SDS011;2263;54.654;9.410;2022-09-17T05:25:15;11.37;;;4.90;;
4500;SDS011;2263;54.654;9.410;2022-09-17T05:27:44;9.70;;;4.10;;
4500;SDS011;2263;54.654;9.410;2022-09-17T05:30:12;7.77;;;4.63;;
4500;SDS011;2263;54.654;9.410;2022-09-17T05:32:39;9.07;;;3.90;;
4500;SDS011;2263;54.654;9.410;2022-09-17T05:35:07;10.20;;;4.83;;
4500;SDS011;2263;54.654;9.410;2022-09-17T05:37:35;9.60;;;3.57;;
4500;SDS011;2263;54.654;9.410;2022-09-17T05:40:03;6.47;;;3.17;;
4500;SDS011;2263;54.654;9.410;2022-09-17T05:42:32;7.57;;;3.93;;
4500;SDS011;2263;54.654;9.410;2022-09-17T05:45:00;9.40;;;2.70;;
4500;SDS011;2263;54.654;9.410;2022-09-17T05:47:27;10.07;;;3.67;;
4500;SDS011;2263;54.654;9.410;2022-09-17T05:49:54;9.50;;;2.70;;
4500;SDS011;2263;54.654;9.410;2022-09-17T05:52:25;7.67;;;3.07;;
4500;SDS011;2263;54.654;9.410;2022-09-17T05:54:55;14.13;;;3.93;;
4500;SDS011;2263;54.654;9.410;2022-09-17T05:57:22;11.07;;;3.47;;
4500;SDS011;2263;54.654;9.410;2022-09-17T05:59:50;5.03;;;1.87;;
4500;SDS011;2263;54.654;9.410;2022-09-17T06:02:17;5.80;;;2.53;;
4500;SDS011;2263;54.654;9.410;2022-09-17T06:04:44;8.60;;;3.30;;
4500;SDS011;2263;54.654;9.410;2022-09-17T06:07:12;7.27;;;2.50;;
4500;SDS011;2263;54.654;9.410;2022-09-17T06:09:39;8.00;;;2.90;;
4500;SDS011;2263;54.654;9.410;2022-09-17T06:12:06;12.70;;;2.50;;
4500;SDS011;2263;54.654;9.410;2022-09-17T06:14:34;10.20;;;2.43;;
4500;SDS011;2263;54.654;9.410;2022-09-17T06:17:01;12.17;;;2.80;;
4500;SDS011;2263;54.654;9.410;2022-09-17T06:19:28;9.70;;;2.40;;
4500;SDS011;2263;54.654;9.410;2022-09-17T06:21:55;7.10;;;2.20;;
4500;SDS011;2263;54.654;9.410;2022-09-17T06:24:22;13.93;;;4.30;;
4500;SDS011;2263;54.654;9.410;2022-09-17T06:26:50;15.00;;;3.27;;
4500;SDS011;2263;54.654;9.410;2022-09-17T06:29:18;11.13;;;2.70;;
4500;SDS011;2263;54.654;9.410;2022-09-17T06:31:47;6.00;;;2.23;;
4500;SDS011;2263;54.654;9.410;2022-09-17T06:34:15;6.10;;;1.97;;
4500;SDS011;2263;54.654;9.410;2022-09-17T06:36:43;12.13;;;3.33;;
4500;SDS011;2263;54.654;9.410;2022-09-17T06:39:10;6.67;;;2.23;;
4500;SDS011;2263;54.654;9.410;2022-09-17T06:41:37;6.03;;;1.93;;
4500;SDS011;2263;54.654;9.410;2022-09-17T06:44:04;7.10;;;2.67;;
4500;SDS011;2263;54.654;9.410;2022-09-17T06:46:31;6.50;;;2.30;;
4500;SDS011;2263;54.654;9.410;2022-09-17T06:48:59;5.90;;;2.00;;
4500;SDS011;2263;54.654;9.410;2022-09-17T06:51:26;11.57;;;2.70;;
4500;SDS011;2263;54.654;9.410;2022-09-17T06:53:53;11.30;;;3.40;;
4500;SDS011;2263;54.654;9.410;2022-09-17T06:56:20;9.40;;;2.07;;
4500;SDS011;2263;54.654;9.410;2022-09-17T06:58:48;6.40;;;2.43;;
4500;SDS011;2263;54.654;9.410;2022-09-17T07:01:16;9.97;;;2.43;;
4500;SDS011;2263;54.654;9.410;2022-09-17T07:03:43;11.63;;;3.37;;
4500;SDS011;2263;54.654;9.410;2022-09-17T07:06:10;6.93;;;2.40;;
4500;SDS011;2263;54.654;9.410;2022-09-17T07:08:38;13.83;;;2.53;;
4500;SDS011;2263;54.654;9.410;2022-09-17T07:11:05;8.63;;;2.30;;
4500;SDS011;2263;54.654;9.410;2022-09-17T07:13:34;8.30;;;2.17;;
4500;SDS011;2263;54.654;9.410;2022-09-17T07:16:01;8.00;;;2.00;;
4500;SDS011;2263;54.654;9.410;2022-09-17T07:18:30;12.20;;;1.90;;
4500;SDS011;2263;54.654;9.410;2022-09-17T07:20:59;13.73;;;2.57;;
4500;SDS011;2263;54.654;9.410;2022-09-17T07:23:31;12.67;;;2.87;;
4500;SDS011;2263;54.654;9.410;2022-09-17T07:26:04;16.03;;;3.00;;
4500;SDS011;2263;54.654;9.410;2022-09-17T07:28:39;9.67;;;2.10;;
4500;SDS011;2263;54.654;9.410;2022-09-17T07:31:07;9.83;;;1.93;;
4500;SDS011;2263;54.654;9.410;2022-09-17T07:33:41;7.40;;;2.80;;
4500;SDS011;2263;54.654;9.410;2022-09-17T07:36:10;7.27;;;2.00;;
4500;SDS011;2263;54.654;9.410;2022-09-17T07:38:39;6.73;;;2.63;;
4500;SDS011;2263;54.654;9.410;2022-09-17T07:41:08;14.77;;;3.40;;
4500;SDS011;2263;54.654;9.410;2022-09-17T07:43:39;15.70;;;2.60;;
4500;SDS011;2263;54.654;9.410;2022-09-17T07:46:09;7.03;;;1.67;;
4500;SDS011;2263;54.654;9.410;2022-09-17T07:48:40;9.70;;;2.03;;
4500;SDS011;2263;54.654;9.410;2022-09-17T07:51:12;8.10;;;2.17;;
4500;SDS011;2263;54.654;9.410;2022-09-17T07:53:41;4.97;;;2.27;;
4500;SDS011;2263;54.654;9.410;2022-09-17T07:56:09;9.67;;;1.93;;
4500;SDS011;2263;54.654;9.410;2022-09-17T07:58:37;7.77;;;2.70;;
4500;SDS011;2263;54.654;9.410;2022-09-17T08:01:05;11.67;;;2.87;;
4500;SDS011;2263;54.654;9.410;2022-09-17T08:03:34;4.83;;;2.47;;
4500;SDS011;2263;54.654;9.410;2022-09-17T08:08:31;13.93;;;2.30;;
4500;SDS011;2263;54.654;9.410;2022-09-17T08:11:00;14.03;;;2.87;;
4500;SDS011;2263;54.654;9.410;2022-09-17T08:13:32;10.50;;;2.33;;
4500;SDS011;2263;54.654;9.410;2022-09-17T08:16:00;6.77;;;2.07;;
4500;SDS011;2263;54.654;9.410;2022-09-17T08:18:29;6.40;;;2.53;;
4500;SDS011;2263;54.654;9.410;2022-09-17T08:20:56;7.60;;;1.67;;
4500;SDS011;2263;54.654;9.410;2022-09-17T08:23:28;5.83;;;1.87;;
4500;SDS011;2263;54.654;9.410;2022-09-17T08:25:57;9.90;;;1.90;;
4500;SDS011;2263;54.654;9.410;2022-09-17T08:28:26;10.27;;;2.40;;
4500;SDS011;2263;54.654;9.410;2022-09-17T08:31:04;10.33;;;2.70;;
4500;SDS011;2263;54.654;9.410;2022-09-17T08:33:37;3.17;;;1.57;;
4500;SDS011;2263;54.654;9.410;2022-09-17T08:36:06;6.70;;;2.03;;
4500;SDS011;2263;54.654;9.410;2022-09-17T08:38:36;10.50;;;2.37;;
4500;SDS011;2263;54.654;9.410;2022-09-17T08:46:25;5.30;;;1.30;;
4500;SDS011;2263;54.654;9.410;2022-09-17T08:52:26;4.53;;;1.73;;
4500;SDS011;2263;54.654;9.410;2022-09-17T09:00:21;6.93;;;2.10;;
4500;SDS011;2263;54.654;9.410;2022-09-17T09:05:48;12.30;;;2.70;;
4500;SDS011;2263;54.654;9.410;2022-09-17T09:11:00;7.43;;;2.13;;
4500;SDS011;2263;54.654;9.410;2022-09-17T09:13:35;8.33;;;1.80;;
4500;SDS011;2263;54.654;9.410;2022-09-17T09:16:13;10.30;;;2.40;;
4500;SDS011;2263;54.654;9.410;2022-09-17T09:18:49;10.03;;;2.97;;
4500;SDS011;2263;54.654;9.410;2022-09-17T09:24:15;12.77;;;2.03;;
4500;SDS011;2263;54.654;9.410;2022-09-17T09:29:54;12.37;;;3.27;;
4500;SDS011;2263;54.654;9.410;2022-09-17T09:35:16;7.87;;;2.17;;
4500;SDS011;2263;54.654;9.410;2022-09-17T09:43:44;4.73;;;2.00;;
4500;SDS011;2263;54.654;9.410;2022-09-17T10:01:01;3.60;;;2.13;;
4500;SDS011;2263;54.654;9.410;2022-09-17T10:03:30;9.10;;;2.27;;
4500;SDS011;2263;54.654;9.410;2022-09-17T10:06:02;7.40;;;2.03;;
4500;SDS011;2263;54.654;9.410;2022-09-17T10:08:31;5.30;;;1.47;;
4500;SDS011;2263;54.654;9.410;2022-09-17T10:11:01;12.77;;;2.83;;
4500;SDS011;2263;54.654;9.410;2022-09-17T10:13:32;6.63;;;2.07;;
4500;SDS011;2263;54.654;9.410;2022-09-17T10:16:17;14.00;;;2.33;;
4500;SDS011;2263;54.654;9.410;2022-09-17T10:24:11;9.93;;;1.70;;
4500;SDS011;2263;54.654;9.410;2022-09-17T10:26:59;13.00;;;1.80;;
4500;SDS011;2263;54.654;9.410;2022-09-17T10:29:31;4.17;;;1.53;;
4500;SDS011;2263;54.654;9.410;2022-09-17T10:32:00;2.83;;;1.47;;
4500;SDS011;2263;54.654;9.410;2022-09-17T10:34:32;8.80;;;1.70;;
4500;SDS011;2263;54.654;9.410;2022-09-17T10:36:59;3.83;;;1.70;;
4500;SDS011;2263;54.654;9.410;2022-09-17T10:39:31;7.47;;;2.47;;
4500;SDS011;2263;54.654;9.410;2022-09-17T10:44:31;6.67;;;1.60;;
4500;SDS011;2263;54.654;9.410;2022-09-17T10:47:01;2.80;;;1.33;;
4500;SDS011;2263;54.654;9.410;2022-09-17T10:49:35;10.50;;;1.70;;
4500;SDS011;2263;54.654;9.410;2022-09-17T10:52:09;5.20;;;1.10;;
4500;SDS011;2263;54.654;9.410;2022-09-17T10:57:39;4.83;;;2.50;;
4500;SDS011;2263;54.654;9.410;2022-09-17T11:00:19;7.17;;;1.80;;
4500;SDS011;2263;54.654;9.410;2022-09-17T11:06:05;4.80;;;1.27;;
4500;SDS011;2263;54.654;9.410;2022-09-17T11:22:08;7.30;;;3.57;;
4500;SDS011;2263;54.654;9.410;2022-09-17T11:24:43;4.63;;;1.00;;
4500;SDS011;2263;54.654;9.410;2022-09-17T11:30:03;4.00;;;1.10;;
4500;SDS011;2263;54.654;9.410;2022-09-17T11:35:30;3.40;;;1.50;;
4500;SDS011;2263;54.654;9.410;2022-09-17T11:46:00;4.80;;;1.30;;
4500;SDS011;2263;54.654;9.410;2022-09-17T11:48:47;4.80;;;1.00;;
4500;SDS011;2263;54.654;9.410;2022-09-17T11:51:37;12.50;;;1.93;;
4500;SDS011;2263;54.654;9.410;2022-09-17T11:54:25;2.60;;;1.10;;
4500;SDS011;2263;54.654;9.410;2022-09-17T11:57:36;6.20;;;1.67;;
4500;SDS011;2263;54.654;9.410;2022-09-17T12:00:17;2.20;;;1.20;;
4500;SDS011;2263;54.654;9.410;2022-09-17T12:05:30;5.37;;;1.67;;
4500;SDS011;2263;54.654;9.410;2022-09-17T12:08:20;3.40;;;1.13;;
4500;SDS011;2263;54.654;9.410;2022-09-17T12:13:43;22.17;;;2.07;;
4500;SDS011;2263;54.654;9.410;2022-09-17T12:16:22;3.57;;;1.70;;
4500;SDS011;2263;54.654;9.410;2022-09-17T12:24:30;1.80;;;0.63;;
4500;SDS011;2263;54.654;9.410;2022-09-17T12:32:33;1.47;;;0.70;;
4500;SDS011;2263;54.654;9.410;2022-09-17T12:41:52;2.23;;;0.73;;
4500;SDS011;2263;54.654;9.410;2022-09-17T13:01:13;1.10;;;0.63;;
4500;SDS011;2263;54.654;9.410;2022-09-17T13:04:32;4.50;;;0.80;;
4500;SDS011;2263;54.654;9.410;2022-09-17T13:08:07;2.60;;;0.77;;
4500;SDS011;2263;54.654;9.410;2022-09-17T13:13:35;1.43;;;0.70;;
4500;SDS011;2263;54.654;9.410;2022-09-17T13:19:04;1.77;;;0.67;;
4500;SDS011;2263;54.654;9.410;2022-09-17T13:22:00;4.80;;;0.93;;
4500;SDS011;2263;54.654;9.410;2022-09-17T13:24:32;1.20;;;0.63;;
4500;SDS011;2263;54.654;9.410;2022-09-17T13:27:01;1.40;;;0.70;;
4500;SDS011;2263;54.654;9.410;2022-09-17T13:43:13;1.80;;;0.63;;
4500;SDS011;2263;54.654;9.410;2022-09-17T13:48:27;1.93;;;0.60;;
4500;SDS011;2263;54.654;9.410;2022-09-17T13:51:40;4.90;;;1.20;;
4500;SDS011;2263;54.654;9.410;2022-09-17T13:53:58;1.67;;;0.90;;
4500;SDS011;2263;54.654;9.410;2022-09-17T13:56:41;1.23;;;0.83;;
4500;SDS011;2263;54.654;9.410;2022-09-17T13:59:19;1.43;;;0.70;;
4500;SDS011;2263;54.654;9.410;2022-09-17T14:01:58;1.73;;;1.00;;
4500;SDS011;2263;54.654;9.410;2022-09-17T14:04:31;4.27;;;1.00;;
4500;SDS011;2263;54.654;9.410;2022-09-17T14:07:17;11.03;;;0.70;;
4500;SDS011;2263;54.654;9.410;2022-09-17T14:09:58;4.30;;;0.67;;
4500;SDS011;2263;54.654;9.410;2022-09-17T14:23:47;3.97;;;1.07;;
4500;SDS011;2263;54.654;9.410;2022-09-17T14:26:25;1.40;;;0.70;;
4500;SDS011;2263;54.654;9.410;2022-09-17T14:29:19;4.00;;;1.10;;
4500;SDS011;2263;54.654;9.410;2022-09-17T14:32:16;2.43;;;0.73;;
4500;SDS011;2263;54.654;9.410;2022-09-17T14:35:15;5.20;;;1.00;;
4500;SDS011;2263;54.654;9.410;2022-09-17T14:37:48;1.63;;;0.80;;
4500;SDS011;2263;54.654;9.410;2022-09-17T14:40:20;2.73;;;0.90;;
4500;SDS011;2263;54.654;9.410;2022-09-17T14:42:50;2.43;;;0.90;;
4500;SDS011;2263;54.654;9.410;2022-09-17T14:45:23;3.80;;;0.97;;
4500;SDS011;2263;54.654;9.410;2022-09-17T14:50:51;4.70;;;0.80;;
4500;SDS011;2263;54.654;9.410;2022-09-17T14:53:19;3.93;;;1.00;;
4500;SDS011;2263;54.654;9.410;2022-09-17T14:55:47;9.93;;;1.30;;
4500;SDS011;2263;54.654;9.410;2022-09-17T14:58:24;4.50;;;1.10;;
4500;SDS011;2263;54.654;9.410;2022-09-17T15:01:05;2.63;;;1.17;;
4500;SDS011;2263;54.654;9.410;2022-09-17T15:04:09;5.30;;;1.10;;
4500;SDS011;2263;54.654;9.410;2022-09-17T15:06:36;5.80;;;1.57;;
4500;SDS011;2263;54.654;9.410;2022-09-17T15:09:04;3.40;;;1.20;;
4500;SDS011;2263;54.654;9.410;2022-09-17T15:11:42;2.53;;;0.87;;
4500;SDS011;2263;54.654;9.410;2022-09-17T15:17:11;2.03;;;0.77;;
4500;SDS011;2263;54.654;9.410;2022-09-17T15:19:42;2.60;;;1.07;;
4500;SDS011;2263;54.654;9.410;2022-09-17T15:24:56;3.73;;;1.07;;
4500;SDS011;2263;54.654;9.410;2022-09-17T15:27:27;4.90;;;1.07;;
4500;SDS011;2263;54.654;9.410;2022-09-17T15:32:33;165.23;;;89.23;;
4500;SDS011;2263;54.654;9.410;2022-09-17T15:37:46;61.27;;;34.10;;
4500;SDS011;2263;54.654;9.410;2022-09-17T15:40:38;43.10;;;22.77;;
4500;SDS011;2263;54.654;9.410;2022-09-17T15:48:54;23.33;;;13.23;;
4500;SDS011;2263;54.654;9.410;2022-09-17T15:51:24;19.33;;;11.30;;
4500;SDS011;2263;54.654;9.410;2022-09-17T15:54:04;16.20;;;9.13;;
4500;SDS011;2263;54.654;9.410;2022-09-17T15:56:32;12.40;;;8.13;;
4500;SDS011;2263;54.654;9.410;2022-09-17T15:59:03;11.33;;;7.07;;
4500;SDS011;2263;54.654;9.410;2022-09-17T16:01:50;11.83;;;5.40;;
4500;SDS011;2263;54.654;9.410;2022-09-17T16:04:20;7.03;;;4.40;;
4500;SDS011;2263;54.654;9.410;2022-09-17T16:06:50;10.87;;;4.70;;
4500;SDS011;2263;54.654;9.410;2022-09-17T16:09:38;12.17;;;3.93;;
4500;SDS011;2263;54.654;9.410;2022-09-17T16:12:13;10.13;;;3.60;;
4500;SDS011;2263;54.654;9.410;2022-09-17T16:14:46;4.13;;;2.83;;
4500;SDS011;2263;54.654;9.410;2022-09-17T16:17:28;9.23;;;3.97;;
4500;SDS011;2263;54.654;9.410;2022-09-17T16:20:11;6.47;;;2.67;;
4500;SDS011;2263;54.654;9.410;2022-09-17T16:22:41;8.47;;;3.57;;
4500;SDS011;2263;54.654;9.410;2022-09-17T16:25:10;7.60;;;3.50;;
4500;SDS011;2263;54.654;9.410;2022-09-17T16:30:25;6.13;;;2.33;;
4500;SDS011;2263;54.654;9.410;2022-09-17T16:32:52;5.73;;;1.73;;
4500;SDS011;2263;54.654;9.410;2022-09-17T16:35:21;6.30;;;2.10;;
4500;SDS011;2263;54.654;9.410;2022-09-17T16:37:50;3.73;;;1.93;;
4500;SDS011;2263;54.654;9.410;2022-09-17T16:40:20;5.53;;;2.13;;
4500;SDS011;2263;54.654;9.410;2022-09-17T16:42:48;13.07;;;2.93;;
4500;SDS011;2263;54.654;9.410;2022-09-17T16:45:16;6.93;;;1.80;;
4500;SDS011;2263;54.654;9.410;2022-09-17T16:47:43;10.27;;;2.07;;
4500;SDS011;2263;54.654;9.410;2022-09-17T16:50:12;5.40;;;1.70;;
4500;SDS011;2263;54.654;9.410;2022-09-17T16:52:41;9.27;;;2.17;;
4500;SDS011;2263;54.654;9.410;2022-09-17T16:55:11;6.40;;;2.20;;
4500;SDS011;2263;54.654;9.410;2022-09-17T16:57:40;6.27;;;2.13;;
4500;SDS011;2263;54.654;9.410;2022-09-17T17:00:08;7.20;;;2.87;;
4500;SDS011;2263;54.654;9.410;2022-09-17T17:02:38;10.13;;;2.63;;
4500;SDS011;2263;54.654;9.410;2022-09-17T17:05:05;12.90;;;2.30;;
4500;SDS011;2263;54.654;9.410;2022-09-17T17:07:34;6.20;;;1.70;;
4500;SDS011;2263;54.654;9.410;2022-09-17T17:10:02;4.87;;;1.60;;
4500;SDS011;2263;54.654;9.410;2022-09-17T17:12:30;7.27;;;2.13;;
4500;SDS011;2263;54.654;9.410;2022-09-17T17:14:58;7.67;;;2.07;;
4500;SDS011;2263;54.654;9.410;2022-09-17T17:17:25;9.40;;;2.27;;
4500;SDS011;2263;54.654;9.410;2022-09-17T17:19:52;4.20;;;1.60;;
4500;SDS011;2263;54.654;9.410;2022-09-17T17:22:19;11.80;;;2.30;;
4500;SDS011;2263;54.654;9.410;2022-09-17T17:24:47;6.27;;;1.83;;
4500;SDS011;2263;54.654;9.410;2022-09-17T17:27:17;6.53;;;1.83;;
4500;SDS011;2263;54.654;9.410;2022-09-17T17:29:44;14.63;;;2.43;;
4500;SDS011;2263;54.654;9.410;2022-09-17T17:32:11;8.87;;;2.03;;
4500;SDS011;2263;54.654;9.410;2022-09-17T17:34:38;6.27;;;1.40;;
4500;SDS011;2263;54.654;9.410;2022-09-17T17:37:06;8.70;;;1.83;;
4500;SDS011;2263;54.654;9.410;2022-09-17T17:39:33;11.77;;;2.23;;
4500;SDS011;2263;54.654;9.410;2022-09-17T17:42:00;12.33;;;2.67;;
4500;SDS011;2263;54.654;9.410;2022-09-17T17:44:27;7.73;;;1.50;;
4500;SDS011;2263;54.654;9.410;2022-09-17T17:46:54;8.67;;;1.77;;
4500;SDS011;2263;54.654;9.410;2022-09-17T17:49:22;11.20;;;1.70;;
4500;SDS011;2263;54.654;9.410;2022-09-17T17:51:49;5.70;;;1.47;;
4500;SDS011;2263;54.654;9.410;2022-09-17T17:54:18;5.80;;;1.20;;
4500;SDS011;2263;54.654;9.410;2022-09-17T17:56:48;4.43;;;1.33;;
4500;SDS011;2263;54.654;9.410;2022-09-17T17:59:15;8.70;;;2.20;;
4500;SDS011;2263;54.654;9.410;2022-09-17T18:01:42;4.93;;;1.60;;
4500;SDS011;2263;54.654;9.410;2022-09-17T18:04:10;7.00;;;1.93;;
4500;SDS011;2263;54.654;9.410;2022-09-17T18:06:37;9.53;;;2.10;;
4500;SDS011;2263;54.654;9.410;2022-09-17T18:09:04;7.47;;;1.30;;
4500;SDS011;2263;54.654;9.410;2022-09-17T18:11:32;7.30;;;2.03;;
4500;SDS011;2263;54.654;9.410;2022-09-17T18:14:00;10.77;;;3.93;;
4500;SDS011;2263;54.654;9.410;2022-09-17T18:16:28;7.43;;;1.80;;
4500;SDS011;2263;54.654;9.410;2022-09-17T18:18:56;12.07;;;1.60;;
4500;SDS011;2263;54.654;9.410;2022-09-17T18:21:24;7.93;;;2.90;;
4500;SDS011;2263;54.654;9.410;2022-09-17T18:23:51;10.97;;;2.50;;
4500;SDS011;2263;54.654;9.410;2022-09-17T18:26:20;6.03;;;1.70;;
4500;SDS011;2263;54.654;9.410;2022-09-17T18:28:49;3.90;;;1.70;;
4500;SDS011;2263;54.654;9.410;2022-09-17T18:31:24;7.23;;;1.50;;
4500;SDS011;2263;54.654;9.410;2022-09-17T18:33:58;4.13;;;2.00;;
4500;SDS011;2263;54.654;9.410;2022-09-17T18:36:27;8.87;;;2.23;;
4500;SDS011;2263;54.654;9.410;2022-09-17T18:39:00;5.70;;;1.57;;
4500;SDS011;2263;54.654;9.410;2022-09-17T18:41:50;7.27;;;1.27;;
4500;SDS011;2263;54.654;9.410;2022-09-17T18:44:18;4.73;;;1.50;;
4500;SDS011;2263;54.654;9.410;2022-09-17T18:46:47;12.83;;;2.40;;
4500;SDS011;2263;54.654;9.410;2022-09-17T18:49:15;7.70;;;1.63;;
4500;SDS011;2263;54.654;9.410;2022-09-17T18:51:43;8.73;;;2.13;;
4500;SDS011;2263;54.654;9.410;2022-09-17T18:54:10;5.07;;;1.77;;
4500;SDS011;2263;54.654;9.410;2022-09-17T18:56:40;5.60;;;1.87;;
4500;SDS011;2263;54.654;9.410;2022-09-17T18:59:08;7.93;;;1.90;;
4500;SDS011;2263;54.654;9.410;2022-09-17T19:01:35;3.80;;;1.73;;
4500;SDS011;2263;54.654;9.410;2022-09-17T19:04:03;8.77;;;1.60;;
4500;SDS011;2263;54.654;9.410;2022-09-17T19:06:33;4.10;;;0.90;;
4500;SDS011;2263;54.654;9.410;2022-09-17T19:09:00;4.20;;;1.60;;
4500;SDS011;2263;54.654;9.410;2022-09-17T19:11:29;12.73;;;3.03;;
4500;SDS011;2263;54.654;9.410;2022-09-17T19:13:56;5.93;;;2.03;;
4500;SDS011;2263;54.654;9.410;2022-09-17T19:16:24;8.23;;;1.90;;
4500;SDS011;2263;54.654;9.410;2022-09-17T19:18:51;8.03;;;1.50;;
4500;SDS011;2263;54.654;9.410;2022-09-17T19:21:18;3.10;;;1.27;;
4500;SDS011;2263;54.654;9.410;2022-09-17T19:23:50;11.27;;;2.00;;
4500;SDS011;2263;54.654;9.410;2022-09-17T19:26:19;6.27;;;1.90;;
4500;SDS011;2263;54.654;9.410;2022-09-17T19:28:55;9.53;;;1.63;;
4500;SDS011;2263;54.654;9.410;2022-09-17T19:31:24;6.93;;;2.07;;
4500;SDS011;2263;54.654;9.410;2022-09-17T19:33:52;11.03;;;2.47;;
4500;SDS011;2263;54.654;9.410;2022-09-17T19:36:20;10.27;;;2.83;;
4500;SDS011;2263;54.654;9.410;2022-09-17T19:38:47;9.77;;;3.47;;